Time;durP1;ratioP1;P1;durP2;ratioP2;P2;SDS_P1;SDS_P2;PMS_P1;PMS_P2;Temp;Humidity;BMP_temperature;BMP_pressure;BME280_temperature;BME280_humidity;BME280_pressure;Samples;Min_cycle;Max_cycle;Signal;HPM_P1;HPM_P2
2024/01/11 00:00:13;;;;;;;;;;;;;;;;;;;;;
2024/01/11 00:02:54;;;;;;;;;;;;;;;;;;;;;
2024/01/11 00:05:25;;;;;;;0.30;0.30;;;;;;;-3.82;51.44;102674.00;4857620;29;20990;-93
2024/01/11 00:07:54;;;;;;;0.20;0.20;;;;;;;-3.92;51.63;102670.72;4864552;29;20505;-92
2024/01/11 00:10:21;;;;;;;0.20;0.20;;;;;;;-3.98;51.75;102668.22;4850209;29;20480;-92
2024/01/11 00:12:49;;;;;;;0.50;0.50;;;;;;;-3.97;51.83;102668.22;4850155;29;20432;-92
2024/01/11 00:15:24;;;;;;;0.10;0.10;;;;;;;-3.89;51.62;102668.06;4848194;29;20520;-93
2024/01/11 00:17:50;;;;;;;0.20;0.20;;;;;;;-3.95;51.47;102663.00;4849259;29;20475;-94
2024/01/11 00:20:16;;;;;;;3.30;1.90;;;;;;;-4.20;51.63;102662.59;4861816;29;20484;-94
2024/01/11 00:22:50;;;;;;;1.52;1.02;;;;;;;-4.42;52.01;102665.53;4882782;29;20489;-92
2024/01/11 00:25:17;;;;;;;0.50;0.50;;;;;;;-4.53;52.24;102665.72;4878604;29;20468;-91
2024/01/11 00:27:43;;;;;;;0.70;0.70;;;;;;;-4.61;52.51;102668.44;4873855;29;20460;-92
2024/01/11 00:30:10;;;;;;;0.40;0.40;;;;;;;-4.86;52.79;102673.13;4868946;29;20455;-92
2024/01/11 00:32:39;;;;;;;0.22;0.22;;;;;;;-4.75;52.98;102677.25;4876581;29;20451;-92
2024/01/11 00:35:06;;;;;;;0.20;0.20;;;;;;;-4.75;52.80;102666.91;4893256;29;20473;-92
2024/01/11 00:37:31;;;;;;;0.70;0.70;;;;;;;-4.58;52.12;102664.06;4892715;29;20396;-92
2024/01/11 00:39:57;;;;;;;0.28;0.28;;;;;;;-4.65;52.31;102669.34;4874810;29;20487;-92
2024/01/11 00:42:23;;;;;;;1.60;1.50;;;;;;;-4.45;52.17;102663.00;4879217;29;20479;-94
2024/01/11 00:44:49;;;;;;;0.20;0.20;;;;;;;-4.33;51.82;102667.13;4893822;29;20408;-93
2024/01/11 00:47:17;;;;;;;0.70;0.70;;;;;;;-4.20;51.66;102666.03;4880487;29;20415;-94
2024/01/11 00:49:43;;;;;;;0.47;0.47;;;;;;;-4.17;51.46;102657.38;4894208;29;20538;-90
2024/01/11 00:52:09;;;;;;;0.32;0.32;;;;;;;-4.16;51.44;102662.53;4877186;29;20487;-92
2024/01/11 00:54:37;;;;;;;0.70;0.70;;;;;;;-4.13;51.07;102671.97;4878013;29;20399;-92
2024/01/11 00:57:06;;;;;;;0.30;0.30;;;;;;;-4.12;51.09;102668.50;4879586;29;20464;-92
2024/01/11 00:59:32;;;;;;;0.30;0.30;;;;;;;-4.18;51.12;102659.06;4879779;29;20423;-92
2024/01/11 01:01:57;;;;;;;0.30;0.30;;;;;;;-4.24;50.96;102651.44;4897686;29;20402;-92
2024/01/11 01:04:26;;;;;;;0.93;0.93;;;;;;;-4.27;51.29;102646.28;4893999;29;20400;-92
2024/01/11 01:06:52;;;;;;;0.40;0.40;;;;;;;-4.29;51.16;102638.53;4883977;29;20493;-93
2024/01/11 01:09:18;;;;;;;0.55;0.55;;;;;;;-4.34;50.76;102635.22;4899029;29;21451;-95
2024/01/11 01:11:43;;;;;;;0.20;0.20;;;;;;;-4.26;50.83;102638.50;4913429;29;20408;-89
2024/01/11 01:14:09;;;;;;;0.20;0.20;;;;;;;-4.25;50.54;102629.88;4894521;29;20467;-91
2024/01/11 01:16:35;;;;;;;0.32;0.32;;;;;;;-4.22;50.85;102616.84;4909672;29;20408;-90
2024/01/11 01:19:01;;;;;;;0.70;0.70;;;;;;;-4.22;50.66;102608.22;4896210;29;20416;-89
2024/01/11 01:21:32;;;;;;;0.20;0.20;;;;;;;-4.30;50.52;102605.78;4894482;29;20449;-92
2024/01/11 01:23:58;;;;;;;0.30;0.30;;;;;;;-4.27;51.00;102618.69;4876778;29;20458;-94
2024/01/11 01:26:27;;;;;;;1.90;1.30;;;;;;;-4.25;51.24;102613.44;4876356;29;20464;-92
2024/01/11 01:28:52;;;;;;;1.52;1.30;;;;;;;-4.28;50.92;102621.31;4876228;29;20537;-93
2024/01/11 01:31:18;;;;;;;1.30;1.20;;;;;;;-4.23;51.22;102616.91;4877091;29;20408;-93
2024/01/11 01:33:44;;;;;;;0.30;0.30;;;;;;;-4.22;51.19;102605.63;4876729;29;20458;-94
2024/01/11 01:36:13;;;;;;;0.40;0.40;;;;;;;-4.18;51.16;102607.28;4876547;29;20414;-92
2024/01/11 01:38:38;;;;;;;0.25;0.25;;;;;;;-4.23;51.00;102591.84;4877632;29;20459;-93
2024/01/11 01:41:04;;;;;;;1.20;1.10;;;;;;;-4.27;51.43;102595.38;4877258;29;20415;-94
2024/01/11 01:43:30;;;;;;;0.80;0.80;;;;;;;-4.26;51.45;102604.00;4894220;29;20408;-93
2024/01/11 01:45:58;;;;;;;0.25;0.25;;;;;;;-4.25;51.43;102598.78;4880925;29;20495;-93
2024/01/11 01:48:30;;;;;;;0.20;0.20;;;;;;;-4.31;51.66;102587.69;4880774;29;20479;-93
2024/01/11 01:50:56;;;;;;;0.50;0.50;;;;;;;-4.20;51.18;102593.50;4880682;29;20455;-92
2024/01/11 01:53:23;;;;;;;0.20;0.20;;;;;;;-4.20;51.60;102587.50;4902750;29;20432;-93
2024/01/11 01:55:51;;;;;;;0.20;0.20;;;;;;;-4.11;51.45;102587.31;4896801;29;20430;-93
2024/01/11 01:58:26;;;;;;;1.07;1.07;;;;;;;-4.09;51.22;102580.38;4898184;29;20410;-92
2024/01/11 02:00:53;;;;;;;0.20;0.20;;;;;;;-4.10;51.18;102576.94;4898443;29;20442;-92
2024/01/11 02:03:20;;;;;;;0.20;0.20;;;;;;;-4.00;51.29;102594.88;4891981;29;20411;-92
2024/01/11 02:05:47;;;;;;;0.25;0.25;;;;;;;-4.05;51.08;102584.63;4898325;29;20423;-94
2024/01/11 02:08:17;;;;;;;1.10;0.70;;;;;;;-4.06;51.29;102575.97;4916013;29;20480;-94
2024/01/11 02:10:49;;;;;;;0.20;0.20;;;;;;;-4.03;51.33;102575.94;4913613;29;20475;-91
2024/01/11 02:13:15;;;;;;;0.68;0.68;;;;;;;-3.96;51.37;102581.84;4880929;29;20458;-92
2024/01/11 02:15:43;;;;;;;2.00;1.90;;;;;;;-4.04;51.33;102565.59;4880369;29;20475;-92
2024/01/11 02:18:11;;;;;;;0.40;0.40;;;;;;;-3.98;51.51;102569.78;4895537;29;20427;-93
2024/01/11 02:20:45;;;;;;;1.13;1.02;;;;;;;-4.00;51.83;102561.22;4879065;29;20447;-94
2024/01/11 02:23:19;;;;;;;0.40;0.40;;;;;;;-4.07;51.21;102568.22;4882379;29;20414;-94
2024/01/11 02:25:45;;;;;;;0.30;0.30;;;;;;;-4.04;51.75;102568.19;4888033;29;20512;-95
2024/01/11 02:28:37;;;;;;;0.98;0.75;;;;;;;-3.92;51.62;102560.19;4887193;29;20410;-95
2024/01/11 02:31:11;;;;;;;0.20;0.20;;;;;;;-3.91;51.45;102564.44;4892049;29;20509;-94
2024/01/11 02:33:42;;;;;;;0.70;0.70;;;;;;;-3.88;51.19;102560.97;4881211;29;20452;-92
2024/01/11 02:36:08;;;;;;;0.20;0.20;;;;;;;-3.86;51.33;102556.59;4860327;29;20958;-92
2024/01/11 02:38:35;;;;;;;6.00;3.45;;;;;;;-3.92;51.68;102552.41;4893338;29;20404;-94
2024/01/11 02:41:04;;;;;;;2.13;2.00;;;;;;;-3.93;51.18;102542.91;4864264;29;20519;-93
2024/01/11 02:43:29;;;;;;;0.50;0.50;;;;;;;-3.91;51.44;102554.09;4882554;29;20462;-93
2024/01/11 02:46:03;;;;;;;0.85;0.85;;;;;;;-3.90;51.08;102540.25;4881640;29;20408;-94
2024/01/11 02:48:30;;;;;;;5.40;2.40;;;;;;;-3.87;51.45;102540.22;4882708;29;20477;-91
2024/01/11 02:50:57;;;;;;;1.20;1.10;;;;;;;-3.79;51.75;102537.44;4882574;29;20494;-93
2024/01/11 02:53:23;;;;;;;0.50;0.50;;;;;;;-3.75;51.74;102533.06;4897056;29;20876;-91
2024/01/11 02:55:52;;;;;;;0.50;0.40;;;;;;;-3.75;51.49;102525.28;4901372;29;20400;-92
2024/01/11 02:58:18;;;;;;;0.30;0.30;;;;;;;-3.72;51.32;102520.03;4884308;29;20443;-93
2024/01/11 03:00:44;;;;;;;1.35;1.25;;;;;;;-3.67;51.91;102524.25;4897642;29;20431;-93
2024/01/11 03:03:09;;;;;;;0.60;0.60;;;;;;;-3.62;52.04;102528.47;4883018;29;20464;-93
2024/01/11 03:05:36;;;;;;;0.70;0.70;;;;;;;-3.56;52.25;102530.94;4893774;29;20532;-94
2024/01/11 03:08:02;;;;;;;0.73;0.73;;;;;;;-3.57;52.72;102524.03;4896744;29;20444;-94
2024/01/11 03:10:31;;;;;;;1.43;1.37;;;;;;;-3.63;52.98;102513.81;4898635;29;20423;-94
2024/01/11 03:12:59;;;;;;;0.20;0.20;;;;;;;-3.65;52.54;102514.69;4898157;29;20466;-94
2024/01/11 03:15:35;;;;;;;1.00;0.93;;;;;;;-3.56;52.73;102521.41;4877994;29;20447;-92
2024/01/11 03:18:01;;;;;;;0.32;0.32;;;;;;;-3.51;52.78;102519.56;4893189;29;20503;-92
2024/01/11 03:20:26;;;;;;;0.40;0.40;;;;;;;-3.44;52.83;102528.03;4876331;29;20443;-93
2024/01/11 03:22:52;;;;;;;1.00;1.00;;;;;;;-3.50;52.84;102525.59;4876784;29;20395;-91
2024/01/11 03:25:18;;;;;;;0.40;0.40;;;;;;;-3.56;53.33;102508.44;4873409;29;20416;-94
2024/01/11 03:27:45;;;;;;;0.50;0.50;;;;;;;-3.54;53.22;102503.22;4864207;29;20434;-93
2024/01/11 03:30:13;;;;;;;0.70;0.70;;;;;;;-3.48;53.41;102503.09;4876970;29;20530;-93
2024/01/11 03:32:42;;;;;;;0.70;0.70;;;;;;;-3.43;53.63;102496.06;4893124;29;20511;-93
2024/01/11 03:35:08;;;;;;;1.80;1.50;;;;;;;-3.47;53.31;102489.25;4877326;29;20835;-93
2024/01/11 03:37:35;;;;;;;0.80;0.80;;;;;;;-3.40;53.34;102495.13;4857385;29;20433;-91
2024/01/11 03:40:05;;;;;;;0.98;0.98;;;;;;;-3.39;53.26;102483.88;4840574;29;20801;-90
2024/01/11 03:42:31;;;;;;;1.70;1.60;;;;;;;-3.34;53.26;102485.47;4840937;29;20397;-92
2024/01/11 03:44:58;;;;;;;2.30;2.10;;;;;;;-3.25;53.43;102493.94;4856589;29;20417;-92
2024/01/11 03:47:24;;;;;;;2.90;1.10;;;;;;;-3.27;53.24;102499.16;4856242;29;20409;-92
2024/01/11 03:49:55;;;;;;;0.60;0.60;;;;;;;-3.31;53.06;102482.81;4841250;29;20993;-93
2024/01/11 03:52:21;;;;;;;0.60;0.60;;;;;;;-3.45;53.22;102490.06;4856490;29;20507;-94
2024/01/11 03:54:49;;;;;;;0.32;0.32;;;;;;;-3.62;54.13;102492.16;4841241;29;20441;-93
2024/01/11 03:57:17;;;;;;;9.45;1.83;;;;;;;-3.61;53.81;102480.94;4854556;29;20690;-91
2024/01/11 03:59:43;;;;;;;0.50;0.50;;;;;;;-3.53;53.56;102489.38;4842727;29;20435;-93
2024/01/11 04:02:14;;;;;;;0.85;0.85;;;;;;;-3.61;53.57;102489.56;4826992;29;20464;-91
2024/01/11 04:04:41;;;;;;;1.33;1.33;;;;;;;-3.85;53.92;102484.03;4845399;29;20567;-92
2024/01/11 04:07:10;;;;;;;0.68;0.68;;;;;;;-4.10;53.99;102472.50;4856985;29;20403;-93
2024/01/11 04:09:43;;;;;;;1.80;1.70;;;;;;;-4.14;54.31;102463.94;4880028;29;20481;-94
2024/01/11 04:12:11;;;;;;;1.52;1.42;;;;;;;-4.28;53.96;102464.22;4903571;29;20426;-93
2024/01/11 04:14:40;;;;;;;3.58;3.28;;;;;;;-4.38;54.40;102472.19;4913907;29;20421;-92
2024/01/11 04:17:07;;;;;;;1.45;1.35;;;;;;;-4.32;54.00;102470.34;4885332;29;20468;-93
2024/01/11 04:19:39;;;;;;;1.17;1.17;;;;;;;-4.35;53.91;102460.03;4915803;29;20425;-92
2024/01/11 04:22:12;;;;;;;0.70;0.70;;;;;;;-4.25;54.06;102471.91;4901811;29;20515;-92
2024/01/11 04:24:43;;;;;;;2.00;1.90;;;;;;;-4.44;53.65;102453.31;4919428;29;20466;-93
2024/01/11 04:27:12;;;;;;;0.82;0.82;;;;;;;-4.41;53.69;102462.75;4909109;29;20431;-89
2024/01/11 04:29:37;;;;;;;2.10;2.00;;;;;;;-4.46;54.09;102469.75;4909744;29;20454;-90
2024/01/11 04:32:03;;;;;;;0.20;0.20;;;;;;;-4.45;53.93;102469.72;4901266;29;21689;-91
2024/01/11 04:34:29;;;;;;;1.90;1.80;;;;;;;-4.49;54.13;102465.47;4898405;29;20400;-90
2024/01/11 04:36:55;;;;;;;0.73;0.73;;;;;;;-4.46;53.90;102455.06;4896562;29;20494;-90
2024/01/11 04:39:21;;;;;;;11.10;2.10;;;;;;;-4.39;54.15;102467.88;4879248;29;20427;-91
2024/01/11 04:41:47;;;;;;;1.52;1.42;;;;;;;-4.43;53.65;102448.97;4898387;29;20419;-90
2024/01/11 04:44:13;;;;;;;1.90;0.80;;;;;;;-4.40;53.81;102432.53;4879020;29;20407;-92
2024/01/11 04:46:40;;;;;;;1.23;1.20;;;;;;;-4.33;54.00;102447.91;4896013;29;20412;-91
2024/01/11 04:49:05;;;;;;;2.40;1.88;;;;;;;-4.35;53.90;102443.66;4881915;29;20395;-91
2024/01/11 04:51:31;;;;;;;2.00;1.90;;;;;;;-4.24;53.68;102446.88;4890221;29;20402;-94
2024/01/11 04:53:57;;;;;;;0.95;0.95;;;;;;;-4.17;53.47;102445.00;4885298;29;20448;-91
2024/01/11 04:57:02;;;;;;;1.75;1.65;;;;;;;-4.13;53.74;102439.72;4884170;29;20429;-93
2024/01/11 04:59:28;;;;;;;1.08;0.98;;;;;;;-4.06;53.42;102437.88;4878270;29;20500;-89
2024/01/11 05:01:54;;;;;;;1.00;1.00;;;;;;;-4.08;53.58;102431.88;4867707;29;20417;-89
2024/01/11 05:04:23;;;;;;;1.40;1.35;;;;;;;-4.10;53.91;102418.09;4870448;29;20398;-94
2024/01/11 05:06:48;;;;;;;1.17;1.17;;;;;;;-3.99;53.90;102425.63;4865469;29;20464;-89
2024/01/11 05:09:14;;;;;;;0.50;0.50;;;;;;;-3.96;53.57;102421.25;4865293;29;20408;-90
2024/01/11 05:11:40;;;;;;;3.38;1.63;;;;;;;-3.94;53.63;102416.88;4879941;29;20935;-90
2024/01/11 05:14:06;;;;;;;0.50;0.50;;;;;;;-3.81;53.74;102424.38;4880282;29;20448;-91
2024/01/11 05:16:31;;;;;;;3.00;2.70;;;;;;;-3.73;53.67;102422.44;4884969;29;20418;-89
2024/01/11 05:19:00;;;;;;;2.30;2.20;;;;;;;-3.71;53.69;102415.47;4870055;29;20426;-91
2024/01/11 05:21:26;;;;;;;3.85;2.03;;;;;;;-3.77;53.40;102419.06;4875828;29;20440;-90
2024/01/11 05:23:52;;;;;;;6.22;3.40;;;;;;;-3.81;53.29;102408.81;4874292;29;20403;-85
2024/01/11 05:26:19;;;;;;;1.30;1.30;;;;;;;-3.79;53.34;102409.66;4882213;29;20523;-90
2024/01/11 05:28:45;;;;;;;1.83;1.73;;;;;;;-3.86;53.29;102409.75;4880748;29;20400;-88
2024/01/11 05:31:13;;;;;;;1.13;1.13;;;;;;;-3.91;53.43;102400.41;4909628;29;20454;-90
2024/01/11 05:33:39;;;;;;;1.77;1.63;;;;;;;-3.91;53.01;102403.00;4878698;29;20412;-89
2024/01/11 05:36:05;;;;;;;1.40;1.20;;;;;;;-3.89;52.99;102396.03;4879655;29;20483;-89
2024/01/11 05:38:31;;;;;;;1.77;1.73;;;;;;;-3.95;52.84;102389.25;4879807;29;20415;-90
2024/01/11 05:40:57;;;;;;;0.63;0.63;;;;;;;-3.90;52.60;102397.78;4880602;29;20431;-91
2024/01/11 05:43:28;;;;;;;1.92;1.83;;;;;;;-3.95;52.90;102394.44;4897093;29;20404;-90
2024/01/11 05:45:54;;;;;;;1.48;1.38;;;;;;;-4.03;52.84;102396.38;4882640;29;20558;-89
2024/01/11 05:48:20;;;;;;;8.50;5.40;;;;;;;-4.11;52.97;102383.56;4878751;29;20728;-90
2024/01/11 05:50:53;;;;;;;1.63;1.52;;;;;;;-4.14;52.69;102394.00;4884061;29;20471;-91
2024/01/11 05:53:24;;;;;;;5.20;2.38;;;;;;;-4.43;52.91;102386.84;4879982;29;20395;-89
2024/01/11 05:55:58;;;;;;;4.97;2.83;;;;;;;-4.45;53.07;102396.38;4882008;29;20475;-89
2024/01/11 05:58:27;;;;;;;1.90;1.80;;;;;;;-4.61;52.90;102382.91;4882367;29;20422;-89
2024/01/11 06:00:55;;;;;;;1.52;1.45;;;;;;;-4.61;52.69;102390.66;4880035;29;20427;-89
2024/01/11 06:03:23;;;;;;;1.75;1.65;;;;;;;-4.61;52.76;102383.78;4879950;29;20399;-89
2024/01/11 06:05:49;;;;;;;2.00;1.90;;;;;;;-4.61;52.34;102386.34;4883441;29;20552;-90
2024/01/11 06:08:14;;;;;;;1.50;1.40;;;;;;;-4.77;52.42;102384.97;4881447;29;20404;-90
2024/01/11 06:10:48;;;;;;;1.77;1.67;;;;;;;-5.16;52.54;102384.81;4890966;29;20400;-90
2024/01/11 06:13:18;;;;;;;6.07;5.57;;;;;;;-5.43;52.84;102387.00;4900358;29;20572;-90
2024/01/11 06:15:45;;;;;;;5.57;5.03;;;;;;;-5.64;52.63;102379.59;4886728;29;20509;-90
2024/01/11 06:18:15;;;;;;;7.05;4.80;;;;;;;-5.98;53.14;102387.88;4882374;29;20813;-89
2024/01/11 06:20:46;;;;;;;8.18;6.38;;;;;;;-6.18;53.24;102393.34;4880513;29;20530;-88
2024/01/11 06:23:16;;;;;;;0.77;0.77;;;;;;;-6.35;53.34;102385.81;4897717;29;20463;-90
2024/01/11 06:25:46;;;;;;;3.73;2.43;;;;;;;-6.36;53.19;102378.94;4881666;29;20415;-90
2024/01/11 06:28:17;;;;;;;2.20;1.60;;;;;;;-6.18;53.30;102383.84;4896567;29;20396;-90
2024/01/11 06:30:53;;;;;;;1.10;1.10;;;;;;;-6.02;52.81;102387.06;4852139;29;20413;-89
2024/01/11 06:33:36;;;;;;;1.60;1.50;;;;;;;-5.90;52.88;102386.03;4865662;29;20464;-89
2024/01/11 06:36:17;;;;;;;0.60;0.60;;;;;;;-5.76;53.08;102384.09;4849276;29;20986;-89
2024/01/11 06:38:48;;;;;;;2.50;2.30;;;;;;;-5.65;52.82;102385.66;4848159;29;20517;-89
2024/01/11 06:41:19;;;;;;;3.50;3.20;;;;;;;-5.59;52.95;102380.38;4848893;29;20417;-89
2024/01/11 06:43:58;;;;;;;10.05;5.75;;;;;;;-5.50;52.92;102384.53;4852202;29;20477;-92
2024/01/11 06:46:40;;;;;;;1.20;1.20;;;;;;;-5.44;52.95;102372.38;4867648;29;20529;-91
2024/01/11 06:49:10;;;;;;;3.42;3.13;;;;;;;-5.33;52.87;102373.91;4853488;29;20563;-87
2024/01/11 06:51:39;;;;;;;0.55;0.55;;;;;;;-5.23;52.65;102370.28;4850865;29;20425;-89
2024/01/11 06:54:12;;;;;;;2.58;1.23;;;;;;;-5.13;52.90;102368.38;4868331;29;20480;-90
2024/01/11 06:56:49;;;;;;;2.42;2.25;;;;;;;-5.08;52.97;102371.75;4887202;29;20490;-90
2024/01/11 06:59:26;;;;;;;4.45;2.65;;;;;;;-5.07;52.70;102366.53;4866174;29;20475;-90
2024/01/11 07:01:55;;;;;;;1.10;1.10;;;;;;;-5.02;52.91;102361.31;4849371;29;20497;-90
2024/01/11 07:04:28;;;;;;;6.87;3.50;;;;;;;-4.88;53.10;102356.72;4875066;29;20418;-90
2024/01/11 07:07:01;;;;;;;0.77;0.77;;;;;;;-4.68;52.80;102363.19;4862839;29;20493;-89
2024/01/11 07:09:33;;;;;;;1.88;1.77;;;;;;;-4.57;52.81;102361.28;4862205;29;20502;-88
2024/01/11 07:12:02;;;;;;;4.32;4.03;;;;;;;-4.44;52.93;102361.88;4846563;29;20473;-90
2024/01/11 07:14:40;;;;;;;4.38;4.03;;;;;;;-4.42;52.51;102358.34;4861805;29;20901;-90
2024/01/11 07:17:15;;;;;;;6.40;4.40;;;;;;;-4.39;52.58;102360.03;4847247;29;20502;-90
2024/01/11 07:20:00;;;;;;;2.83;2.63;;;;;;;-4.28;52.61;102365.81;4860235;29;20491;-90
2024/01/11 07:22:33;;;;;;;1.60;1.55;;;;;;;-4.20;52.71;102367.38;4858568;29;21079;-89
2024/01/11 07:25:04;;;;;;;2.30;2.10;;;;;;;-4.14;52.74;102352.56;4862771;29;20416;-89
2024/01/11 07:27:33;;;;;;;0.88;0.88;;;;;;;-4.05;52.50;102354.09;4847005;29;20483;-90
2024/01/11 07:30:06;;;;;;;1.50;1.40;;;;;;;-3.95;52.20;102359.91;4867608;29;20880;-90
2024/01/11 07:32:42;;;;;;;1.77;1.67;;;;;;;-4.05;52.63;102352.38;4878132;29;20473;-92
2024/01/11 07:35:14;;;;;;;4.43;3.22;;;;;;;-3.96;52.80;102359.06;4878615;29;20404;-91
2024/01/11 07:37:47;;;;;;;3.20;3.00;;;;;;;-3.80;52.49;102351.75;4864841;29;20470;-89
2024/01/11 07:40:16;;;;;;;4.53;4.13;;;;;;;-3.63;52.13;102341.00;4881076;29;20456;-88
2024/01/11 07:42:48;;;;;;;1.42;1.42;;;;;;;-3.54;52.74;102343.38;4879017;29;20454;-88
2024/01/11 07:45:21;;;;;;;2.00;1.90;;;;;;;-3.43;52.55;102334.47;4879349;29;20472;-92
2024/01/11 07:47:59;;;;;;;0.55;0.55;;;;;;;-3.28;52.57;102334.94;4864690;29;20480;-89
2024/01/11 07:50:33;;;;;;;5.05;4.55;;;;;;;-3.17;52.18;102334.63;4863287;29;20458;-89
2024/01/11 07:53:12;;;;;;;3.38;3.17;;;;;;;-3.11;52.27;102342.25;4859665;29;20475;-90
2024/01/11 07:55:47;;;;;;;2.03;1.73;;;;;;;-2.98;52.33;102328.94;4841863;29;20479;-89
2024/01/11 07:58:37;;;;;;;2.85;2.65;;;;;;;-2.90;51.89;102326.97;4859858;29;20544;-90
2024/01/11 08:01:20;;;;;;;4.18;3.88;;;;;;;-2.74;52.14;102317.88;4864902;29;20557;-90
2024/01/11 08:03:57;;;;;;;5.10;3.15;;;;;;;-2.55;51.79;102314.72;4852429;29;20427;-91
2024/01/11 08:06:28;;;;;;;1.77;1.73;;;;;;;-2.46;52.03;102309.25;4865413;29;20524;-90
2024/01/11 08:09:05;;;;;;;2.65;2.45;;;;;;;-2.38;52.27;102301.22;4849010;29;20526;-91
2024/01/11 08:11:46;;;;;;;1.38;1.33;;;;;;;-2.21;52.02;102300.72;4848396;29;20541;-90
2024/01/11 08:14:20;;;;;;;2.78;2.60;;;;;;;-2.13;51.88;102296.09;4856204;29;20468;-91
2024/01/11 08:16:53;;;;;;;0.70;0.70;;;;;;;-2.01;52.12;102294.88;4879171;29;20433;-92
2024/01/11 08:19:30;;;;;;;1.48;1.48;;;;;;;-1.97;52.14;102288.69;4892807;29;20431;-91
2024/01/11 08:22:03;;;;;;;2.72;2.58;;;;;;;-1.88;52.20;102303.97;4887844;29;20424;-90
2024/01/11 08:24:34;;;;;;;0.50;0.50;;;;;;;-1.75;52.14;102297.47;4898642;29;20404;-89
2024/01/11 08:27:09;;;;;;;0.50;0.50;;;;;;;-1.71;52.17;102287.81;4883192;29;20455;-89
2024/01/11 08:29:36;;;;;;;1.25;1.25;;;;;;;-1.66;52.37;102288.50;4884163;29;20434;-89
2024/01/11 08:32:08;;;;;;;1.52;1.27;;;;;;;-1.66;52.70;102275.50;4883812;29;20411;-88
2024/01/11 08:34:43;;;;;;;1.90;1.80;;;;;;;-1.55;52.57;102286.41;4888089;29;20436;-90
2024/01/11 08:37:11;;;;;;;0.98;0.98;;;;;;;-1.37;52.37;102274.50;4889998;29;20399;-88
2024/01/11 08:39:47;;;;;;;0.50;0.50;;;;;;;-1.29;52.19;102274.22;4899848;29;20463;-90
2024/01/11 08:42:15;;;;;;;0.45;0.45;;;;;;;-1.22;52.15;102267.06;4886472;29;20403;-90
2024/01/11 08:44:46;;;;;;;0.22;0.22;;;;;;;-1.17;52.15;102259.91;4906241;29;20408;-88
2024/01/11 08:47:15;;;;;;;2.20;2.00;;;;;;;-1.13;52.15;102271.06;4893595;29;20444;-88
2024/01/11 08:49:45;;;;;;;0.60;0.60;;;;;;;-1.01;52.11;102260.19;4892721;29;20769;-89
2024/01/11 08:52:15;;;;;;;1.30;1.20;;;;;;;-0.91;51.95;102258.97;4894243;29;20436;-90
2024/01/11 08:54:50;;;;;;;1.92;1.85;;;;;;;-0.82;51.77;102266.41;4894023;29;20408;-89
2024/01/11 08:57:17;;;;;;;0.90;0.90;;;;;;;-0.81;51.92;102255.13;4893526;29;20396;-89
2024/01/11 08:59:42;;;;;;;0.55;0.55;;;;;;;-0.78;51.87;102246.31;4894394;29;20420;-88
2024/01/11 09:02:11;;;;;;;0.73;0.73;;;;;;;-0.66;51.86;102252.81;4900732;29;20398;-89
2024/01/11 09:04:39;;;;;;;4.13;2.67;;;;;;;-0.72;52.09;102237.41;4902359;29;20408;-90
2024/01/11 09:07:05;;;;;;;0.45;0.45;;;;;;;-0.56;52.13;102238.53;4886597;29;20460;-89
2024/01/11 09:09:34;;;;;;;0.30;0.30;;;;;;;-0.52;51.97;102240.13;4898813;29;20450;-90
2024/01/11 09:12:02;;;;;;;0.80;0.80;;;;;;;-0.45;51.92;102232.88;4885724;29;20399;-90
2024/01/11 09:14:28;;;;;;;0.53;0.53;;;;;;;-0.31;52.06;102234.94;4885692;29;20424;-89
2024/01/11 09:16:55;;;;;;;0.57;0.57;;;;;;;-0.17;51.93;102229.19;4888513;29;20460;-89
2024/01/11 09:19:21;;;;;;;1.10;1.00;;;;;;;-0.14;51.87;102213.44;4911301;29;20504;-91
2024/01/11 09:21:50;;;;;;;0.70;0.70;;;;;;;-0.08;51.81;102218.38;4885782;29;20427;-89
2024/01/11 09:24:26;;;;;;;0.70;0.70;;;;;;;-0.05;51.53;102206.06;4892303;29;20403;-90
2024/01/11 09:26:54;;;;;;;0.50;0.50;;;;;;;-0.04;51.70;102204.28;4871823;29;20416;-90
2024/01/11 09:29:22;;;;;;;0.50;0.50;;;;;;;-0.02;51.82;102184.22;4886196;29;20410;-89
2024/01/11 09:31:50;;;;;;;0.60;0.60;;;;;;;0.05;51.67;102190.88;4883758;29;20396;-88
2024/01/11 09:34:17;;;;;;;2.90;1.42;;;;;;;0.05;51.60;102172.63;4899333;29;20773;-90
2024/01/11 09:36:43;;;;;;;1.00;1.00;;;;;;;0.09;51.61;102166.38;4872639;29;20403;-90
2024/01/11 09:39:13;;;;;;;0.47;0.47;;;;;;;0.13;51.66;102156.66;4900728;29;20416;-92
2024/01/11 09:41:46;;;;;;;1.10;1.10;;;;;;;0.17;51.59;102155.59;4905930;29;20491;-90
2024/01/11 09:49:22;;;;;;;0.60;0.60;;;;;;;0.31;51.59;102134.97;4909272;29;20474;-92
2024/01/11 09:51:49;;;;;;;1.20;1.10;;;;;;;0.45;51.93;102123.06;4894861;29;20396;-89
2024/01/11 09:54:37;;;;;;;1.17;1.17;;;;;;;0.55;51.84;102138.22;4942603;29;20495;-89
2024/01/11 09:57:11;;;;;;;1.05;0.77;;;;;;;0.66;51.61;102116.88;4919504;29;20410;-92
2024/01/11 09:59:42;;;;;;;1.80;1.70;;;;;;;0.87;51.24;102122.03;4911195;29;20430;-90
2024/01/11 10:02:12;;;;;;;1.35;1.27;;;;;;;0.91;51.28;102107.91;4892322;29;20414;-90
2024/01/11 10:04:38;;;;;;;0.47;0.47;;;;;;;0.93;51.52;102091.22;4922352;29;20392;-90
2024/01/11 10:07:06;;;;;;;0.50;0.50;;;;;;;1.03;51.51;102096.03;4941516;29;20411;-91
2024/01/11 10:09:33;;;;;;;3.08;2.10;;;;;;;1.06;51.39;102094.13;4926470;29;20397;-91
2024/01/11 10:12:11;;;;;;;0.77;0.77;;;;;;;1.19;51.45;102088.28;4938952;29;20400;-92
2024/01/11 10:14:49;;;;;;;0.75;0.75;;;;;;;1.31;51.45;102092.91;4910434;29;20950;-91
2024/01/11 10:17:19;;;;;;;3.17;2.92;;;;;;;1.39;51.44;102082.06;4926595;29;20408;-91
2024/01/11 10:19:54;;;;;;;3.60;3.30;;;;;;;1.58;51.04;102082.81;4926442;29;20476;-91
2024/01/11 10:22:25;;;;;;;1.50;1.40;;;;;;;1.71;51.16;102075.19;4922950;29;20419;-93
2024/01/11 10:25:15;;;;;;;2.40;2.20;;;;;;;1.77;51.06;102072.28;4913697;29;20401;-91
2024/01/11 10:27:45;;;;;;;0.70;0.70;;;;;;;1.92;51.27;102068.03;4944194;29;20405;-92
2024/01/11 10:30:23;;;;;;;7.32;5.90;;;;;;;2.14;50.97;102061.66;4926541;29;20415;-91
2024/01/11 10:32:52;;;;;;;1.98;1.88;;;;;;;2.27;51.14;102052.25;4898680;29;20415;-90
2024/01/11 10:35:23;;;;;;;1.00;1.00;;;;;;;2.25;50.99;102054.06;4874781;29;20401;-90
2024/01/11 10:37:58;;;;;;;12.75;6.65;;;;;;;2.31;51.29;102039.84;4875026;29;20440;-91
2024/01/11 10:40:33;;;;;;;3.08;2.70;;;;;;;2.44;50.84;102049.53;4893933;29;20431;-91
2024/01/11 10:43:01;;;;;;;2.37;2.20;;;;;;;2.41;50.84;102033.16;4875321;29;20436;-92
2024/01/11 11:04:30;;;;;;;1.92;1.15;;;;;;;3.03;51.08;101973.75;4901176;29;20436;-91
2024/01/11 11:06:59;;;;;;;2.88;2.25;;;;;;;3.21;50.71;101979.69;4877355;29;20403;-91
2024/01/11 11:09:31;;;;;;;0.88;0.88;;;;;;;3.23;50.43;101969.13;4890443;29;20437;-92
2024/01/11 11:12:10;;;;;;;1.40;0.93;;;;;;;3.28;50.17;101955.75;4887644;29;20423;-90
2024/01/11 11:14:44;;;;;;;3.40;2.42;;;;;;;3.34;50.56;101965.88;4903408;29;20784;-92
2024/01/11 11:17:14;;;;;;;2.17;1.60;;;;;;;3.49;50.49;101946.56;4900455;29;20404;-92
2024/01/11 11:19:46;;;;;;;2.35;1.88;;;;;;;3.36;49.91;101941.25;4885375;29;20420;-91
2024/01/11 11:22:16;;;;;;;1.90;1.63;;;;;;;3.41;50.16;101940.97;4890070;29;20396;-91
2024/01/11 11:25:13;;;;;;;2.13;1.30;;;;;;;3.37;49.54;101926.38;4896821;29;20442;-93
2024/01/11 11:27:48;;;;;;;0.55;0.55;;;;;;;3.38;48.24;101931.50;4892828;29;20518;-90
2024/01/11 11:30:21;;;;;;;0.90;0.60;;;;;;;3.48;48.64;101918.69;4884993;29;20545;-91
2024/01/11 11:32:48;;;;;;;1.83;1.73;;;;;;;3.57;48.74;101917.28;4881186;29;20415;-92
2024/01/11 11:35:17;;;;;;;1.38;1.27;;;;;;;3.60;48.76;101910.09;4866022;29;20495;-90
2024/01/11 11:37:46;;;;;;;0.47;0.47;;;;;;;3.72;48.42;101899.75;4911865;29;20412;-91
2024/01/11 11:40:16;;;;;;;0.30;0.30;;;;;;;3.72;48.45;101890.09;4920307;29;20530;-91
2024/01/11 11:42:48;;;;;;;1.13;1.03;;;;;;;3.81;46.75;101893.94;4923442;29;20435;-90
2024/01/11 11:45:28;;;;;;;1.90;1.27;;;;;;;3.78;47.21;101881.00;4937272;29;20396;-91
2024/01/11 11:47:54;;;;;;;0.47;0.47;;;;;;;3.74;46.41;101866.41;4921064;29;20413;-91
2024/01/11 11:50:24;;;;;;;2.38;1.83;;;;;;;3.91;47.46;101850.44;4926950;29;20986;-91
2024/01/11 11:53:03;;;;;;;1.00;1.00;;;;;;;3.81;46.41;101847.56;4922997;29;20533;-92
2024/01/11 11:55:34;;;;;;;1.05;0.95;;;;;;;3.88;46.43;101852.44;4923142;29;20428;-90
2024/01/11 11:58:02;;;;;;;1.53;1.43;;;;;;;4.00;46.95;101841.97;4927459;29;20435;-91
2024/01/11 12:00:33;;;;;;;0.40;0.35;;;;;;;3.82;46.41;101859.75;4923350;29;20428;-90
2024/01/11 12:03:03;;;;;;;1.52;0.65;;;;;;;3.86;46.34;101844.66;4937395;29;20427;-89
2024/01/11 12:05:31;;;;;;;0.45;0.45;;;;;;;3.97;45.27;101839.53;4919777;29;20404;-89